createdAt,value
2019-01-14T00:00:19.028Z,4.62
2019-01-14T00:02:49.109Z,4.00
2019-01-14T00:05:19.649Z,3.22
2019-01-14T00:07:50.095Z,3.62
2019-01-14T00:10:20.499Z,3.80
2019-01-14T00:12:50.673Z,3.87
2019-01-14T00:15:20.998Z,4.35
2019-01-14T00:17:51.488Z,3.63
2019-01-14T00:20:21.972Z,3.60
2019-01-14T00:22:52.497Z,3.65
2019-01-14T00:25:22.892Z,4.03
2019-01-14T00:27:53.278Z,3.15
2019-01-14T00:30:24.606Z,3.30
2019-01-14T00:32:55.384Z,2.63
2019-01-14T00:35:26.194Z,2.40
2019-01-14T00:37:56.836Z,2.80
2019-01-14T00:40:39.598Z,3.30
2019-01-14T00:43:10.487Z,2.60
2019-01-14T00:45:40.781Z,2.70
2019-01-14T00:48:11.529Z,2.55
2019-01-14T00:50:41.964Z,2.47
2019-01-14T00:53:12.568Z,3.42
2019-01-14T00:55:42.952Z,3.17
2019-01-14T00:58:13.472Z,2.85
2019-01-14T01:00:44.312Z,2.97
2019-01-14T01:03:14.924Z,3.33
2019-01-14T01:05:45.624Z,3.10
2019-01-14T01:08:16.264Z,1.98
2019-01-14T01:10:46.910Z,2.70
2019-01-14T01:13:17.277Z,2.52
2019-01-14T01:15:47.849Z,2.10
2019-01-14T01:18:20.800Z,2.47
2019-01-14T01:20:52.222Z,2.80
2019-01-14T01:23:24.047Z,2.05
2019-01-14T01:25:54.829Z,2.40
2019-01-14T01:28:25.402Z,4.70
2019-01-14T01:30:56.454Z,2.62
2019-01-14T01:33:27.140Z,2.47
2019-01-14T01:35:57.605Z,2.50
2019-01-14T01:38:27.979Z,2.70
2019-01-14T01:40:58.923Z,2.73
2019-01-14T01:43:29.218Z,2.15
2019-01-14T01:46:00.550Z,2.63
2019-01-14T01:48:33.598Z,2.30
2019-01-14T01:51:06.335Z,2.47
2019-01-14T01:53:38.501Z,2.22
2019-01-14T01:56:09.555Z,2.47
2019-01-14T01:58:40.429Z,2.33
2019-01-14T02:01:10.815Z,2.57
2019-01-14T02:03:43.856Z,3.17
2019-01-14T02:06:15.168Z,1.93
2019-01-14T02:08:46.980Z,2.60
2019-01-14T02:11:19.159Z,2.30
2019-01-14T02:13:51.321Z,2.23
2019-01-14T02:16:23.504Z,2.33
2019-01-14T02:18:55.213Z,2.47
2019-01-14T02:21:26.377Z,2.83
2019-01-14T02:23:59.919Z,2.33
2019-01-14T02:26:32.208Z,2.97
2019-01-14T02:29:03.941Z,2.33
2019-01-14T02:31:35.046Z,2.30
2019-01-14T02:34:06.163Z,2.30
2019-01-14T02:36:36.948Z,1.90
2019-01-14T02:39:09.451Z,2.43
2019-01-14T02:41:40.062Z,2.35
2019-01-14T02:44:10.770Z,3.17
2019-01-14T02:46:41.436Z,2.60
2019-01-14T02:49:11.935Z,2.52
2019-01-14T02:51:42.335Z,3.07
2019-01-14T02:54:12.718Z,2.97
2019-01-14T02:56:43.071Z,1.87
2019-01-14T02:59:13.502Z,2.27
2019-01-14T03:01:44.365Z,1.80
2019-01-14T03:04:14.680Z,2.00
2019-01-14T03:06:45.012Z,1.57
2019-01-14T03:09:15.396Z,1.95
2019-01-14T03:11:46.141Z,1.53
2019-01-14T03:14:16.801Z,1.80
2019-01-14T03:16:47.507Z,1.63
2019-01-14T03:19:17.999Z,1.40
2019-01-14T03:21:48.562Z,1.47
2019-01-14T03:24:19.362Z,1.30
2019-01-14T03:26:50.198Z,1.50
2019-01-14T03:29:20.991Z,1.40
2019-01-14T03:31:51.964Z,1.27
2019-01-14T03:34:23.117Z,1.80
2019-01-14T03:36:53.869Z,1.00
2019-01-14T03:39:24.803Z,2.22
2019-01-14T03:41:55.421Z,1.90
2019-01-14T03:44:26.153Z,1.55
2019-01-14T03:46:56.881Z,1.40
2019-01-14T03:49:27.263Z,1.52
2019-01-14T03:51:58.094Z,1.63
2019-01-14T03:54:29.258Z,1.92
2019-01-14T03:56:59.837Z,1.83
2019-01-14T03:59:30.588Z,1.67
2019-01-14T04:02:01.095Z,2.20
2019-01-14T04:04:31.701Z,1.67
2019-01-14T04:07:02.239Z,1.50
2019-01-14T04:09:32.616Z,3.33
2019-01-14T04:12:03.085Z,2.08
2019-01-14T04:14:34.000Z,2.15
2019-01-14T04:17:04.762Z,2.00
2019-01-14T04:19:35.049Z,1.67
2019-01-14T04:22:05.461Z,2.15
2019-01-14T04:24:35.688Z,1.87
2019-01-14T04:27:05.974Z,2.30
2019-01-14T04:29:36.264Z,2.27
2019-01-14T04:32:06.584Z,2.67
2019-01-14T04:34:37.205Z,2.45
2019-01-14T04:37:07.981Z,2.45
2019-01-14T04:39:39.092Z,1.87
2019-01-14T04:42:10.541Z,2.23
2019-01-14T04:44:41.787Z,3.25
2019-01-14T04:47:12.457Z,2.50
2019-01-14T04:49:43.216Z,2.30
2019-01-14T04:52:13.759Z,2.60
2019-01-14T04:54:44.232Z,2.45
2019-01-14T04:57:15.480Z,2.30
2019-01-14T04:59:46.357Z,2.75
2019-01-14T05:02:16.689Z,2.37
2019-01-14T05:04:47.406Z,2.22
2019-01-14T05:07:18.151Z,2.60
2019-01-14T05:09:49.015Z,2.70
2019-01-14T05:12:19.576Z,2.47
2019-01-14T05:14:50.191Z,2.25
2019-01-14T05:17:20.666Z,2.63
2019-01-14T05:19:51.409Z,2.25
2019-01-14T05:22:21.974Z,2.05
2019-01-14T05:24:52.239Z,2.60
2019-01-14T05:27:22.518Z,2.27
2019-01-14T05:29:52.804Z,1.62
2019-01-14T05:32:23.265Z,1.70
2019-01-14T05:34:53.483Z,2.67
2019-01-14T05:37:23.770Z,2.77
2019-01-14T05:39:53.917Z,2.22
2019-01-14T05:42:24.276Z,1.80
2019-01-14T05:44:54.497Z,1.85
2019-01-14T05:47:24.682Z,1.40
2019-01-14T05:49:54.808Z,1.37
2019-01-14T05:52:24.876Z,1.37
2019-01-14T05:54:55.018Z,1.32
2019-01-14T05:57:25.605Z,1.63
2019-01-14T05:59:55.800Z,1.25
2019-01-14T06:02:26.025Z,1.87
2019-01-14T06:04:56.093Z,1.37
2019-01-14T06:07:26.701Z,1.50
2019-01-14T06:09:56.973Z,1.40
2019-01-14T06:12:27.156Z,1.40
2019-01-14T06:14:57.109Z,1.65
2019-01-14T06:17:27.291Z,0.90
2019-01-14T06:19:57.815Z,1.25
2019-01-14T06:22:27.946Z,1.03
2019-01-14T06:24:58.537Z,1.32
2019-01-14T06:27:28.790Z,1.27
2019-01-14T06:29:59.087Z,1.10
2019-01-14T06:32:29.264Z,1.30
2019-01-14T06:34:59.573Z,1.80
2019-01-14T06:37:29.946Z,0.98
2019-01-14T06:40:00.223Z,1.30
2019-01-14T06:42:30.700Z,1.57
2019-01-14T06:45:02.449Z,1.20
2019-01-14T06:47:32.992Z,1.60
2019-01-14T06:50:05.120Z,1.60
2019-01-14T06:52:35.928Z,1.52
2019-01-14T06:55:07.480Z,1.40
2019-01-14T06:57:37.551Z,1.40
2019-01-14T07:00:13.777Z,1.15
2019-01-14T07:02:43.971Z,1.50
2019-01-14T07:05:14.713Z,1.30
2019-01-14T07:07:45.007Z,2.05
2019-01-14T07:10:18.080Z,1.85
2019-01-14T07:12:48.202Z,0.90
2019-01-14T07:15:18.608Z,1.35
2019-01-14T07:17:48.829Z,1.32
2019-01-14T07:20:19.511Z,1.10
2019-01-14T07:22:49.895Z,1.72
2019-01-14T07:25:20.411Z,1.12
2019-01-14T07:27:50.844Z,1.37
2019-01-14T07:30:22.635Z,1.50
2019-01-14T07:32:52.570Z,1.20
2019-01-14T07:35:22.888Z,1.65
2019-01-14T07:37:53.041Z,1.40
2019-01-14T07:40:23.291Z,1.65
2019-01-14T07:42:53.675Z,1.37
2019-01-14T07:45:23.916Z,1.40
2019-01-14T07:47:53.916Z,1.92
2019-01-14T07:50:24.127Z,1.30
2019-01-14T07:52:54.586Z,1.20
2019-01-14T07:55:24.883Z,1.77
2019-01-14T07:57:55.458Z,1.70
2019-01-14T08:00:25.840Z,1.12
2019-01-14T08:02:56.165Z,1.25
2019-01-14T08:05:26.599Z,1.10
2019-01-14T08:07:56.716Z,1.72
2019-01-14T17:22:47.384Z,2.60
2019-01-14T17:25:17.793Z,2.25
2019-01-14T17:27:48.234Z,2.20
2019-01-14T17:30:18.981Z,2.02
2019-01-14T17:32:50.793Z,2.60
2019-01-14T17:35:21.291Z,2.02
2019-01-14T17:37:52.801Z,2.40
2019-01-14T17:40:23.330Z,1.98
2019-01-14T17:42:53.502Z,1.90
2019-01-14T17:45:24.049Z,3.17
2019-01-14T17:47:54.657Z,2.75
2019-01-14T17:50:25.151Z,2.17
2019-01-14T17:52:55.914Z,1.98
2019-01-14T17:55:28.749Z,2.47
2019-01-14T17:57:59.575Z,2.42
2019-01-14T18:00:31.642Z,2.53
2019-01-14T18:03:02.044Z,2.30
2019-01-14T18:05:32.395Z,2.40
2019-01-14T18:08:02.702Z,1.85
2019-01-14T18:10:40.032Z,2.87
2019-01-14T18:16:25.840Z,1.70
2019-01-14T18:18:56.689Z,1.70
2019-01-14T18:24:31.949Z,2.30
2019-01-14T18:27:04.723Z,1.90
2019-01-14T18:29:39.166Z,2.42
2019-01-14T18:32:13.496Z,2.50
2019-01-14T18:34:43.837Z,1.70
2019-01-14T18:37:15.188Z,1.95
2019-01-14T18:39:47.029Z,1.90
2019-01-14T18:42:17.843Z,2.07
2019-01-14T18:44:50.077Z,2.33
2019-01-14T18:47:20.774Z,1.97
2019-01-14T18:49:53.191Z,2.20
2019-01-14T18:52:23.983Z,3.07
2019-01-14T18:54:54.475Z,2.00
2019-01-14T18:57:26.324Z,2.27
2019-01-14T18:59:56.779Z,2.67
2019-01-14T19:02:27.667Z,2.20
2019-01-14T19:04:57.934Z,2.47
2019-01-14T19:07:32.708Z,2.27
2019-01-14T19:10:08.482Z,2.30
2019-01-14T19:12:42.095Z,2.30
2019-01-14T19:15:20.014Z,2.70
2019-01-14T19:17:53.270Z,2.27
2019-01-14T19:20:26.291Z,2.12
2019-01-14T19:22:57.543Z,2.42
2019-01-14T19:25:29.018Z,1.52
2019-01-14T19:27:59.613Z,1.95
2019-01-14T19:30:30.127Z,2.77
2019-01-14T19:33:00.875Z,2.52
2019-01-14T19:35:31.182Z,2.17
2019-01-14T19:38:03.807Z,2.37
2019-01-14T19:40:36.417Z,2.00
2019-01-14T19:43:09.144Z,1.77
2019-01-14T19:45:41.644Z,1.90
2019-01-14T19:48:16.165Z,2.00
2019-01-14T19:50:46.562Z,2.60
2019-01-14T19:53:16.859Z,2.70
2019-01-14T19:55:47.230Z,1.87
2019-01-14T19:58:17.598Z,1.80
2019-01-14T20:00:47.804Z,2.67
2019-01-14T20:03:18.245Z,2.35
2019-01-14T20:05:48.659Z,2.30
2019-01-14T20:08:19.804Z,2.80
2019-01-14T20:10:51.414Z,1.77
2019-01-14T20:13:23.132Z,2.33
2019-01-14T20:15:56.061Z,2.23
2019-01-14T20:18:27.151Z,2.58
2019-01-14T20:20:58.249Z,5.63
2019-01-14T20:23:29.239Z,4.37
2019-01-14T20:26:00.060Z,2.77
2019-01-14T20:28:30.969Z,3.85
2019-01-14T20:31:01.798Z,3.23
2019-01-14T20:33:32.885Z,2.30
2019-01-14T20:36:04.625Z,2.30
2019-01-14T20:38:36.569Z,2.52
2019-01-14T20:41:16.638Z,2.20
2019-01-14T20:43:43.161Z,3.00
2019-01-14T20:46:13.628Z,2.53
2019-01-14T20:48:44.036Z,3.08
2019-01-14T20:51:14.706Z,2.90
2019-01-14T20:53:45.029Z,2.92
2019-01-14T20:56:15.568Z,2.97
2019-01-14T20:58:45.843Z,2.98
2019-01-14T21:01:16.030Z,4.27
2019-01-14T21:03:46.199Z,2.72
2019-01-14T21:06:16.722Z,2.83
2019-01-14T21:08:48.258Z,2.92
2019-01-14T21:11:23.805Z,4.23
2019-01-14T21:13:51.635Z,3.77
2019-01-14T21:16:22.469Z,2.83
2019-01-14T21:18:55.226Z,2.42
2019-01-14T21:21:27.118Z,2.40
2019-01-14T21:23:57.999Z,2.60
2019-01-14T21:26:28.085Z,2.07
2019-01-14T21:28:58.830Z,2.15
2019-01-14T21:31:29.592Z,2.33
2019-01-14T21:34:00.005Z,2.50
2019-01-14T21:36:30.433Z,3.17
2019-01-14T21:39:01.408Z,2.70
2019-01-14T21:41:32.090Z,2.92
2019-01-14T21:44:02.417Z,2.65
2019-01-14T21:46:33.098Z,2.63
2019-01-14T21:49:04.062Z,3.22
2019-01-14T21:51:35.563Z,2.80
2019-01-14T21:54:06.647Z,2.22
2019-01-14T21:56:36.913Z,2.33
2019-01-14T21:59:08.541Z,2.50
2019-01-14T22:01:39.312Z,2.42
2019-01-14T22:04:09.922Z,2.70
2019-01-14T22:06:40.337Z,2.80
2019-01-14T22:09:10.568Z,1.95
2019-01-14T22:11:40.958Z,2.90
2019-01-14T22:14:11.290Z,2.47
2019-01-14T22:16:41.548Z,2.93
2019-01-14T22:19:11.785Z,4.03
2019-01-14T22:21:42.047Z,2.67
2019-01-14T22:24:12.475Z,2.50
2019-01-14T22:26:43.297Z,2.77
2019-01-14T22:29:13.806Z,2.98
2019-01-14T22:31:44.017Z,2.30
2019-01-14T22:34:14.545Z,2.42
2019-01-14T22:36:45.028Z,2.40
2019-01-14T22:39:15.330Z,3.00
2019-01-14T22:41:45.948Z,3.03
2019-01-14T22:44:16.387Z,2.75
2019-01-14T22:46:46.464Z,2.60
2019-01-14T22:49:16.590Z,3.20
2019-01-14T22:51:46.829Z,3.22
2019-01-14T22:54:16.870Z,2.43
2019-01-14T22:56:47.231Z,2.60
2019-01-14T22:59:17.927Z,2.63
2019-01-14T23:01:48.557Z,2.70
2019-01-14T23:04:23.261Z,2.20
2019-01-14T23:13:28.375Z,3.17
2019-01-14T23:15:58.410Z,2.83
2019-01-14T23:18:28.649Z,3.65
2019-01-14T23:20:58.909Z,2.60
2019-01-14T23:23:29.006Z,2.47
2019-01-14T23:25:59.251Z,3.30
2019-01-14T23:28:29.326Z,2.77
2019-01-14T23:30:59.490Z,2.97
2019-01-14T23:33:29.678Z,2.60
2019-01-14T23:36:00.297Z,2.73
2019-01-14T23:38:30.693Z,2.95
2019-01-14T23:41:01.019Z,2.27
2019-01-14T23:43:31.162Z,2.80
2019-01-14T23:46:01.408Z,2.47
2019-01-14T23:48:32.957Z,2.90
2019-01-14T23:51:04.055Z,2.90
2019-01-14T23:53:34.447Z,2.42
2019-01-14T23:56:05.146Z,2.63
2019-01-14T23:58:35.500Z,2.75
